N7542S SEGU-SPJC
Flight info
| Callsign | N7542S |
|---|---|
| Flight time | 3h 8m |
| Altitude | 7000 |
| Route | PUNAS5 PUNAS G675 OGTAM/N0217F090 G675 SLS |
| Aircraft | AEST/L-SDFGRY/S |
Departure
| Time | 2026-04-16 22:35 |
|---|---|
| Airport | José Joaquín de Olmedo International Airport (SEGU) |
Arrival
| Time | 2026-04-17 01:44 |
|---|---|
| Airport | Jorge Chávez International Airport (SPJC) |
| Time | Latitude | Longitude | Altitude | Speed | Heading |
|---|---|---|---|---|---|
| 2026-04-16 22:06 | -2.16542 | -79.89059 | 24 ft | 0 kts | 29° |
| 2026-04-16 22:10 | -2.16530 | -79.89084 | 24 ft | 0 kts | 29° |
| 2026-04-16 22:25 | -2.16526 | -79.89081 | 24 ft | 4 kts | 32° |
| 2026-04-16 22:25 | -2.16525 | -79.89036 | 24 ft | 9 kts | 114° |
| 2026-04-16 22:25 | -2.16551 | -79.88974 | 23 ft | 11 kts | 115° |
| 2026-04-16 22:25 | -2.16508 | -79.88917 | 23 ft | 13 kts | 30° |
| 2026-04-16 22:26 | -2.16425 | -79.88869 | 23 ft | 15 kts | 29° |
| 2026-04-16 22:26 | -2.16328 | -79.88816 | 23 ft | 17 kts | 29° |
| 2026-04-16 22:26 | -2.16222 | -79.88753 | 23 ft | 18 kts | 33° |
| 2026-04-16 22:26 | -2.16108 | -79.88686 | 24 ft | 20 kts | 29° |
| 2026-04-16 22:27 | -2.15984 | -79.88617 | 23 ft | 21 kts | 31° |
| 2026-04-16 22:27 | -2.15856 | -79.88541 | 23 ft | 21 kts | 30° |
| 2026-04-16 22:27 | -2.15731 | -79.88470 | 23 ft | 20 kts | 29° |
| 2026-04-16 22:27 | -2.15614 | -79.88400 | 23 ft | 19 kts | 28° |
| 2026-04-16 22:28 | -2.15503 | -79.88337 | 23 ft | 18 kts | 30° |
| 2026-04-16 22:28 | -2.15399 | -79.88277 | 23 ft | 17 kts | 30° |
| 2026-04-16 22:28 | -2.15328 | -79.88237 | 23 ft | 5 kts | 28° |
| 2026-04-16 22:28 | -2.15280 | -79.88221 | 23 ft | 9 kts | 347° |
| 2026-04-16 22:29 | -2.15216 | -79.88249 | 23 ft | 12 kts | 13° |
| 2026-04-16 22:29 | -2.15132 | -79.88207 | 24 ft | 15 kts | 28° |
| 2026-04-16 22:29 | -2.15036 | -79.88152 | 24 ft | 17 kts | 30° |
| 2026-04-16 22:29 | -2.14929 | -79.88088 | 24 ft | 18 kts | 32° |
| 2026-04-16 22:30 | -2.14826 | -79.88026 | 24 ft | 17 kts | 30° |
| 2026-04-16 22:30 | -2.14727 | -79.87969 | 24 ft | 16 kts | 30° |
| 2026-04-16 22:30 | -2.14659 | -79.87920 | 24 ft | 11 kts | 47° |
| 2026-04-16 22:30 | -2.14651 | -79.87900 | 24 ft | 0 kts | 107° |
| 2026-04-16 22:33 | -2.14653 | -79.87894 | 24 ft | 3 kts | 104° |
| 2026-04-16 22:33 | -2.14632 | -79.87845 | 23 ft | 12 kts | 80° |
| 2026-04-16 22:33 | -2.14661 | -79.87754 | 23 ft | 13 kts | 167° |
| 2026-04-16 22:33 | -2.14697 | -79.87763 | 22 ft | 0 kts | 208° |
| 2026-04-16 22:34 | -2.14723 | -79.87777 | 22 ft | 18 kts | 208° |
| 2026-04-16 22:34 | -2.14944 | -79.87905 | 24 ft | 62 kts | 210° |
| 2026-04-16 22:34 | -2.15452 | -79.88189 | 23 ft | 99 kts | 211° |
| 2026-04-16 22:34 | -2.16046 | -79.88575 | 138 ft | 106 kts | 210° |
| 2026-04-16 22:35 | -2.16684 | -79.88984 | 394 ft | 111 kts | 210° |
| 2026-04-16 22:35 | -2.17322 | -79.89415 | 619 ft | 113 kts | 210° |
| 2026-04-16 22:35 | -2.18015 | -79.89857 | 734 ft | 121 kts | 210° |
| 2026-04-16 22:35 | -2.18714 | -79.90345 | 899 ft | 126 kts | 214° |
| 2026-04-16 22:36 | -2.19437 | -79.90883 | 1057 ft | 132 kts | 213° |
| 2026-04-16 22:36 | -2.20267 | -79.91388 | 1174 ft | 148 kts | 199° |
| 2026-04-16 22:36 | -2.21288 | -79.91452 | 1390 ft | 148 kts | 168° |
| 2026-04-16 22:36 | -2.22211 | -79.91046 | 1715 ft | 144 kts | 147° |
| 2026-04-16 22:37 | -2.22988 | -79.90389 | 1860 ft | 151 kts | 134° |
| 2026-04-16 22:37 | -2.23585 | -79.89520 | 2008 ft | 158 kts | 122° |
| 2026-04-16 22:37 | -2.24343 | -79.88727 | 2161 ft | 160 kts | 161° |
| 2026-04-16 22:37 | -2.25422 | -79.88656 | 2359 ft | 154 kts | 186° |
| 2026-04-16 22:38 | -2.26508 | -79.88732 | 2531 ft | 159 kts | 184° |
| 2026-04-16 22:38 | -2.27616 | -79.88783 | 2692 ft | 160 kts | 184° |
| 2026-04-16 22:38 | -2.28735 | -79.88841 | 2884 ft | 162 kts | 186° |
| 2026-04-16 22:38 | -2.29864 | -79.88955 | 3077 ft | 164 kts | 188° |
| 2026-04-16 22:39 | -2.30994 | -79.89094 | 3264 ft | 163 kts | 189° |
| 2026-04-16 22:39 | -2.32125 | -79.89217 | 3445 ft | 165 kts | 182° |
| 2026-04-16 22:39 | -2.33286 | -79.89241 | 3642 ft | 167 kts | 185° |
| 2026-04-16 22:39 | -2.34454 | -79.89297 | 3837 ft | 169 kts | 185° |
| 2026-04-16 22:40 | -2.35631 | -79.89361 | 4028 ft | 170 kts | 185° |
| 2026-04-16 22:40 | -2.36810 | -79.89427 | 4235 ft | 168 kts | 185° |
| 2026-04-16 22:40 | -2.37988 | -79.89493 | 4433 ft | 169 kts | 186° |
| 2026-04-16 22:40 | -2.39161 | -79.89573 | 4616 ft | 170 kts | 187° |
| 2026-04-16 22:41 | -2.40344 | -79.89680 | 4791 ft | 170 kts | 187° |
| 2026-04-16 22:41 | -2.41525 | -79.89799 | 4961 ft | 171 kts | 188° |
| 2026-04-16 22:41 | -2.42710 | -79.89928 | 5133 ft | 171 kts | 188° |
| 2026-04-16 22:41 | -2.43884 | -79.90065 | 5305 ft | 170 kts | 189° |
| 2026-04-16 22:42 | -2.45048 | -79.90209 | 5460 ft | 171 kts | 189° |
| 2026-04-16 22:42 | -2.46240 | -79.90358 | 5615 ft | 170 kts | 190° |
| 2026-04-16 22:42 | -2.47418 | -79.90513 | 5745 ft | 171 kts | 190° |
| 2026-04-16 22:42 | -2.48582 | -79.90676 | 5867 ft | 172 kts | 191° |
| 2026-04-16 22:43 | -2.49761 | -79.90849 | 5996 ft | 172 kts | 191° |
| 2026-04-16 22:43 | -2.50951 | -79.91039 | 6135 ft | 172 kts | 191° |
| 2026-04-16 22:43 | -2.52134 | -79.91230 | 6257 ft | 173 kts | 191° |
| 2026-04-16 22:43 | -2.53316 | -79.91413 | 6361 ft | 173 kts | 191° |
| 2026-04-16 22:44 | -2.54505 | -79.91584 | 6471 ft | 172 kts | 190° |
| 2026-04-16 22:44 | -2.55694 | -79.91751 | 6601 ft | 172 kts | 190° |
| 2026-04-16 22:44 | -2.56882 | -79.91911 | 6700 ft | 173 kts | 189° |
| 2026-04-16 22:44 | -2.58072 | -79.92071 | 6806 ft | 172 kts | 188° |
| 2026-04-16 22:45 | -2.59264 | -79.92216 | 6892 ft | 173 kts | 188° |
| 2026-04-16 22:45 | -2.60461 | -79.92344 | 6988 ft | 173 kts | 187° |
| 2026-04-16 22:45 | -2.61665 | -79.92464 | 7089 ft | 173 kts | 187° |
| 2026-04-16 22:45 | -2.62868 | -79.92566 | 7168 ft | 174 kts | 187° |
| 2026-04-16 22:46 | -2.64071 | -79.92666 | 7244 ft | 173 kts | 186° |
| 2026-04-16 22:46 | -2.65270 | -79.92749 | 7331 ft | 172 kts | 186° |
| 2026-04-16 22:46 | -2.66468 | -79.92829 | 7401 ft | 173 kts | 186° |
| 2026-04-16 22:46 | -2.67665 | -79.92908 | 7479 ft | 173 kts | 186° |
| 2026-04-16 22:47 | -2.68868 | -79.92995 | 7563 ft | 173 kts | 186° |
| 2026-04-16 22:47 | -2.70067 | -79.93087 | 7637 ft | 173 kts | 186° |
| 2026-04-16 22:47 | -2.71264 | -79.93169 | 7734 ft | 172 kts | 186° |
| 2026-04-16 22:47 | -2.72462 | -79.93255 | 7795 ft | 173 kts | 187° |
| 2026-04-16 22:48 | -2.73662 | -79.93359 | 7874 ft | 173 kts | 187° |
| 2026-04-16 22:48 | -2.74858 | -79.93468 | 7935 ft | 172 kts | 187° |
| 2026-04-16 22:48 | -2.76035 | -79.93587 | 7993 ft | 173 kts | 188° |
| 2026-04-16 22:48 | -2.77226 | -79.93719 | 8049 ft | 172 kts | 189° |
| 2026-04-16 22:49 | -2.78415 | -79.93858 | 8092 ft | 173 kts | 189° |
| 2026-04-16 22:49 | -2.79625 | -79.94020 | 8085 ft | 179 kts | 189° |
| 2026-04-16 22:49 | -2.80878 | -79.94193 | 8089 ft | 185 kts | 189° |
| 2026-04-16 22:49 | -2.82161 | -79.94366 | 8088 ft | 188 kts | 189° |
| 2026-04-16 22:50 | -2.83481 | -79.94538 | 8086 ft | 195 kts | 189° |
| 2026-04-16 22:50 | -2.84846 | -79.94719 | 8081 ft | 201 kts | 189° |
| 2026-04-16 22:50 | -2.86246 | -79.94900 | 8107 ft | 205 kts | 188° |
| 2026-04-16 22:50 | -2.87689 | -79.95078 | 8034 ft | 212 kts | 188° |
| 2026-04-16 22:51 | -2.89168 | -79.95249 | 7991 ft | 214 kts | 187° |
| 2026-04-16 22:51 | -2.90644 | -79.95395 | 8027 ft | 213 kts | 187° |
| 2026-04-16 22:51 | -2.92121 | -79.95525 | 8046 ft | 213 kts | 186° |
| 2026-04-16 22:51 | -2.93587 | -79.95652 | 8102 ft | 211 kts | 186° |
| 2026-04-16 22:52 | -2.95065 | -79.95773 | 8076 ft | 213 kts | 186° |
| 2026-04-16 22:52 | -2.96519 | -79.95883 | 8083 ft | 213 kts | 186° |
| 2026-04-16 22:52 | -2.97992 | -79.95997 | 8082 ft | 213 kts | 186° |
| 2026-04-16 22:52 | -2.99486 | -79.96127 | 8056 ft | 215 kts | 187° |
| 2026-04-16 22:53 | -3.00961 | -79.96269 | 8086 ft | 214 kts | 187° |
| 2026-04-16 22:53 | -3.02445 | -79.96431 | 8072 ft | 215 kts | 188° |
| 2026-04-16 22:53 | -3.03928 | -79.96595 | 8092 ft | 214 kts | 188° |
| 2026-04-16 22:53 | -3.05409 | -79.96767 | 8075 ft | 215 kts | 188° |
| 2026-04-16 22:54 | -3.06892 | -79.96953 | 8082 ft | 215 kts | 188° |
| 2026-04-16 22:54 | -3.08373 | -79.97130 | 8062 ft | 215 kts | 188° |
| 2026-04-16 22:54 | -3.09875 | -79.97309 | 8026 ft | 217 kts | 188° |
| 2026-04-16 22:54 | -3.11358 | -79.97476 | 8066 ft | 214 kts | 188° |
| 2026-04-16 22:55 | -3.12849 | -79.97628 | 8063 ft | 215 kts | 187° |
| 2026-04-16 22:55 | -3.14333 | -79.97781 | 8072 ft | 215 kts | 187° |
| 2026-04-16 22:55 | -3.15816 | -79.97925 | 8072 ft | 214 kts | 187° |
| 2026-04-16 22:55 | -3.17296 | -79.98064 | 8072 ft | 214 kts | 187° |
| 2026-04-16 22:56 | -3.18782 | -79.98200 | 8009 ft | 217 kts | 187° |
| 2026-04-16 22:56 | -3.20295 | -79.98349 | 7993 ft | 217 kts | 188° |
| 2026-04-16 22:56 | -3.21783 | -79.98512 | 8061 ft | 214 kts | 188° |
| 2026-04-16 22:56 | -3.23263 | -79.98681 | 8065 ft | 214 kts | 188° |
| 2026-04-16 22:57 | -3.24741 | -79.98845 | 8061 ft | 214 kts | 188° |
| 2026-04-16 22:57 | -3.26221 | -79.99005 | 8060 ft | 214 kts | 188° |
| 2026-04-16 22:57 | -3.27707 | -79.99173 | 8059 ft | 215 kts | 187° |
| 2026-04-16 22:57 | -3.29196 | -79.99334 | 8051 ft | 216 kts | 187° |
| 2026-04-16 22:58 | -3.30683 | -79.99481 | 8055 ft | 215 kts | 187° |
| 2026-04-16 22:58 | -3.31670 | -79.99574 | 8057 ft | 215 kts | 187° |
| 2026-04-16 22:58 | -3.33660 | -79.99764 | 8055 ft | 215 kts | 187° |
| 2026-04-16 22:58 | -3.34649 | -79.99872 | 8038 ft | 216 kts | 188° |
| 2026-04-16 22:59 | -3.36138 | -80.00043 | 8020 ft | 217 kts | 188° |
| 2026-04-16 22:59 | -3.37656 | -80.00203 | 7951 ft | 219 kts | 187° |
| 2026-04-16 22:59 | -3.39160 | -80.00361 | 7985 ft | 217 kts | 187° |
| 2026-04-16 22:59 | -3.40664 | -80.00509 | 7940 ft | 218 kts | 188° |
| 2026-04-16 23:00 | -3.42164 | -80.00675 | 7988 ft | 215 kts | 188° |
| 2026-04-16 23:00 | -3.43643 | -80.00831 | 8019 ft | 214 kts | 187° |
| 2026-04-16 23:00 | -3.45114 | -80.00996 | 8043 ft | 213 kts | 189° |
| 2026-04-16 23:00 | -3.46579 | -80.01184 | 8061 ft | 212 kts | 194° |
| 2026-04-16 23:01 | -3.48000 | -80.01583 | 8056 ft | 213 kts | 198° |
| 2026-04-16 23:01 | -3.49425 | -80.02018 | 8048 ft | 214 kts | 198° |
| 2026-04-16 23:01 | -3.50846 | -80.02468 | 8051 ft | 214 kts | 199° |
| 2026-04-16 23:01 | -3.52265 | -80.02926 | 8056 ft | 215 kts | 200° |
| 2026-04-16 23:02 | -3.53679 | -80.03402 | 8063 ft | 214 kts | 200° |
| 2026-04-16 23:02 | -3.55083 | -80.03893 | 8071 ft | 212 kts | 201° |
| 2026-04-16 23:02 | -3.56470 | -80.04390 | 8081 ft | 211 kts | 202° |
| 2026-04-16 23:02 | -3.57849 | -80.04907 | 8081 ft | 212 kts | 203° |
| 2026-04-16 23:03 | -3.59226 | -80.05448 | 8079 ft | 213 kts | 203° |
| 2026-04-16 23:03 | -3.60599 | -80.06007 | 8078 ft | 213 kts | 204° |
| 2026-04-16 23:03 | -3.61971 | -80.06573 | 8103 ft | 214 kts | 204° |
| 2026-04-16 23:03 | -3.63338 | -80.07150 | 8105 ft | 213 kts | 204° |
| 2026-04-16 23:04 | -3.64686 | -80.07727 | 8102 ft | 214 kts | 204° |
| 2026-04-16 23:04 | -3.66052 | -80.08306 | 8104 ft | 213 kts | 204° |
| 2026-04-16 23:04 | -3.67421 | -80.08878 | 8103 ft | 214 kts | 204° |
| 2026-04-16 23:04 | -3.68815 | -80.09450 | 8102 ft | 213 kts | 204° |
| 2026-04-16 23:05 | -3.70190 | -80.09993 | 8100 ft | 212 kts | 203° |
| 2026-04-16 23:05 | -3.71570 | -80.10517 | 8103 ft | 212 kts | 202° |
| 2026-04-16 23:05 | -3.72940 | -80.11029 | 8102 ft | 213 kts | 201° |
| 2026-04-16 23:05 | -3.74337 | -80.11533 | 8104 ft | 213 kts | 201° |
| 2026-04-16 23:06 | -3.75739 | -80.12018 | 8107 ft | 214 kts | 200° |
| 2026-04-16 23:06 | -3.77153 | -80.12497 | 8121 ft | 214 kts | 200° |
| 2026-04-16 23:06 | -3.78570 | -80.12950 | 8119 ft | 214 kts | 199° |
| 2026-04-16 23:06 | -3.79995 | -80.13384 | 8125 ft | 214 kts | 198° |
| 2026-04-16 23:07 | -3.81420 | -80.13797 | 8124 ft | 214 kts | 198° |
| 2026-04-16 23:07 | -3.82848 | -80.14215 | 8123 ft | 213 kts | 198° |
| 2026-04-16 23:07 | -3.84269 | -80.14618 | 8123 ft | 212 kts | 198° |
| 2026-04-16 23:07 | -3.85691 | -80.15024 | 8125 ft | 212 kts | 198° |
| 2026-04-16 23:08 | -3.87112 | -80.15424 | 8125 ft | 212 kts | 198° |
| 2026-04-16 23:08 | -3.88531 | -80.15840 | 8128 ft | 212 kts | 198° |
| 2026-04-16 23:08 | -3.89946 | -80.16270 | 8128 ft | 212 kts | 199° |
| 2026-04-16 23:08 | -3.91355 | -80.16703 | 8105 ft | 212 kts | 199° |
| 2026-04-16 23:09 | -3.92761 | -80.17170 | 8101 ft | 213 kts | 199° |
| 2026-04-16 23:09 | -3.94162 | -80.17657 | 8103 ft | 213 kts | 200° |
| 2026-04-16 23:09 | -3.95557 | -80.18151 | 8102 ft | 212 kts | 200° |
| 2026-04-16 23:09 | -3.96943 | -80.18648 | 8101 ft | 211 kts | 201° |
| 2026-04-16 23:10 | -3.98326 | -80.19159 | 8102 ft | 212 kts | 201° |
| 2026-04-16 23:10 | -3.99706 | -80.19673 | 8101 ft | 211 kts | 202° |
| 2026-04-16 23:10 | -4.01083 | -80.20193 | 8101 ft | 212 kts | 202° |
| 2026-04-16 23:10 | -4.02460 | -80.20718 | 8101 ft | 211 kts | 202° |
| 2026-04-16 23:11 | -4.03838 | -80.21248 | 8102 ft | 212 kts | 202° |
| 2026-04-16 23:11 | -4.05214 | -80.21771 | 8103 ft | 211 kts | 202° |
| 2026-04-16 23:11 | -4.06596 | -80.22294 | 8105 ft | 212 kts | 201° |
| 2026-04-16 23:11 | -4.07978 | -80.22811 | 8104 ft | 213 kts | 201° |
| 2026-04-16 23:12 | -4.09367 | -80.23323 | 8106 ft | 213 kts | 201° |
| 2026-04-16 23:12 | -4.10738 | -80.23817 | 8103 ft | 212 kts | 200° |
| 2026-04-16 23:12 | -4.12131 | -80.24302 | 8105 ft | 213 kts | 200° |
| 2026-04-16 23:12 | -4.13528 | -80.24780 | 8105 ft | 212 kts | 199° |
| 2026-04-16 23:13 | -4.14924 | -80.25242 | 8107 ft | 211 kts | 199° |
| 2026-04-16 23:13 | -4.16319 | -80.25693 | 8105 ft | 211 kts | 199° |
| 2026-04-16 23:13 | -4.17724 | -80.26144 | 8104 ft | 212 kts | 199° |
| 2026-04-16 23:13 | -4.19133 | -80.26593 | 8104 ft | 213 kts | 198° |
| 2026-04-16 23:14 | -4.20540 | -80.27037 | 8106 ft | 212 kts | 198° |
| 2026-04-16 23:14 | -4.21950 | -80.27482 | 8104 ft | 213 kts | 198° |
| 2026-04-16 23:14 | -4.23362 | -80.27934 | 8100 ft | 213 kts | 199° |
| 2026-04-16 23:14 | -4.24769 | -80.28384 | 8103 ft | 212 kts | 199° |
| 2026-04-16 23:15 | -4.27582 | -80.29308 | 8072 ft | 214 kts | 199° |
| 2026-04-16 23:15 | -4.28986 | -80.29783 | 8078 ft | 213 kts | 200° |
| 2026-04-16 23:15 | -4.30389 | -80.30262 | 8052 ft | 213 kts | 200° |
| 2026-04-16 23:16 | -4.31788 | -80.30745 | 8099 ft | 211 kts | 200° |
| 2026-04-16 23:16 | -4.33175 | -80.31232 | 8085 ft | 213 kts | 200° |
| 2026-04-16 23:16 | -4.34572 | -80.31735 | 8050 ft | 214 kts | 201° |
| 2026-04-16 23:16 | -4.35967 | -80.32240 | 8052 ft | 212 kts | 201° |
| 2026-04-16 23:17 | -4.37355 | -80.32745 | 8055 ft | 213 kts | 201° |
| 2026-04-16 23:17 | -4.38743 | -80.33254 | 8070 ft | 212 kts | 201° |
| 2026-04-16 23:17 | -4.40130 | -80.33759 | 8064 ft | 212 kts | 201° |
| 2026-04-16 23:17 | -4.41520 | -80.34259 | 8072 ft | 211 kts | 200° |
| 2026-04-16 23:18 | -4.42902 | -80.34753 | 8073 ft | 212 kts | 200° |
| 2026-04-16 23:18 | -4.44305 | -80.35254 | 8018 ft | 214 kts | 200° |
| 2026-04-16 23:18 | -4.45705 | -80.35744 | 8020 ft | 213 kts | 200° |
| 2026-04-16 23:18 | -4.47108 | -80.36231 | 8036 ft | 212 kts | 200° |
| 2026-04-16 23:19 | -4.48504 | -80.36711 | 8039 ft | 212 kts | 200° |
| 2026-04-16 23:19 | -4.49909 | -80.37190 | 7979 ft | 215 kts | 199° |
| 2026-04-16 23:19 | -4.51315 | -80.37662 | 8012 ft | 213 kts | 199° |
| 2026-04-16 23:19 | -4.52701 | -80.38118 | 8059 ft | 211 kts | 199° |
| 2026-04-16 23:20 | -4.54097 | -80.38573 | 8075 ft | 212 kts | 199° |
| 2026-04-16 23:20 | -4.55499 | -80.39038 | 8074 ft | 212 kts | 199° |
| 2026-04-16 23:20 | -4.56898 | -80.39495 | 8075 ft | 211 kts | 199° |
| 2026-04-16 23:20 | -4.58297 | -80.39958 | 8073 ft | 213 kts | 200° |
| 2026-04-16 23:21 | -4.59703 | -80.40429 | 8053 ft | 214 kts | 200° |
| 2026-04-16 23:21 | -4.61115 | -80.40904 | 7996 ft | 215 kts | 200° |
| 2026-04-16 23:21 | -4.62545 | -80.41388 | 7928 ft | 217 kts | 200° |
| 2026-04-16 23:21 | -4.63983 | -80.41890 | 7881 ft | 219 kts | 200° |
| 2026-04-16 23:22 | -4.65411 | -80.42397 | 7918 ft | 215 kts | 201° |
| 2026-04-16 23:22 | -4.66808 | -80.42888 | 7939 ft | 213 kts | 201° |
| 2026-04-16 23:22 | -4.68221 | -80.43397 | 7894 ft | 217 kts | 201° |
| 2026-04-16 23:22 | -4.69644 | -80.43909 | 7837 ft | 218 kts | 201° |
| 2026-04-16 23:23 | -4.71066 | -80.44420 | 7854 ft | 216 kts | 201° |
| 2026-04-16 23:23 | -4.72466 | -80.44913 | 7907 ft | 211 kts | 200° |
| 2026-04-16 23:23 | -4.73856 | -80.45400 | 7948 ft | 211 kts | 200° |
| 2026-04-16 23:23 | -4.75229 | -80.45871 | 8016 ft | 207 kts | 200° |
| 2026-04-16 23:24 | -4.76588 | -80.46334 | 8066 ft | 207 kts | 200° |
| 2026-04-16 23:24 | -4.77964 | -80.46795 | 8036 ft | 208 kts | 200° |
| 2026-04-16 23:24 | -4.79343 | -80.47261 | 8058 ft | 210 kts | 200° |
| 2026-04-16 23:24 | -4.80732 | -80.47738 | 8028 ft | 212 kts | 200° |
| 2026-04-16 23:25 | -4.82121 | -80.48210 | 8048 ft | 211 kts | 200° |
| 2026-04-16 23:25 | -4.83519 | -80.48694 | 8003 ft | 215 kts | 200° |
| 2026-04-16 23:25 | -4.84925 | -80.49184 | 8036 ft | 213 kts | 200° |
| 2026-04-16 23:25 | -4.86331 | -80.49671 | 7997 ft | 215 kts | 200° |
| 2026-04-16 23:26 | -4.87735 | -80.50151 | 8035 ft | 211 kts | 200° |
| 2026-04-16 23:26 | -4.89135 | -80.50632 | 8027 ft | 217 kts | 200° |
| 2026-04-16 23:26 | -4.90548 | -80.51121 | 8051 ft | 218 kts | 200° |
| 2026-04-16 23:26 | -4.91989 | -80.51610 | 8056 ft | 219 kts | 200° |
| 2026-04-16 23:27 | -4.93432 | -80.52105 | 8059 ft | 219 kts | 200° |
| 2026-04-16 23:27 | -4.94874 | -80.52604 | 8050 ft | 220 kts | 200° |
| 2026-04-16 23:27 | -4.96311 | -80.53109 | 8038 ft | 220 kts | 200° |
| 2026-04-16 23:27 | -4.97773 | -80.53617 | 7994 ft | 222 kts | 200° |
| 2026-04-16 23:28 | -4.99236 | -80.54133 | 7977 ft | 223 kts | 200° |
| 2026-04-16 23:28 | -5.00712 | -80.54656 | 7895 ft | 227 kts | 200° |
| 2026-04-16 23:28 | -5.02210 | -80.55173 | 7780 ft | 231 kts | 199° |
| 2026-04-16 23:28 | -5.03713 | -80.55682 | 7821 ft | 226 kts | 199° |
| 2026-04-16 23:29 | -5.05205 | -80.56185 | 7782 ft | 227 kts | 199° |
| 2026-04-16 23:29 | -5.06713 | -80.56692 | 7697 ft | 231 kts | 199° |
| 2026-04-16 23:29 | -5.08223 | -80.57204 | 7733 ft | 227 kts | 200° |
| 2026-04-16 23:29 | -5.09696 | -80.57716 | 7795 ft | 222 kts | 200° |
| 2026-04-16 23:30 | -5.11140 | -80.58224 | 7855 ft | 220 kts | 200° |
| 2026-04-16 23:30 | -5.12577 | -80.58725 | 7924 ft | 217 kts | 200° |
| 2026-04-16 23:30 | -5.13988 | -80.59239 | 7995 ft | 214 kts | 201° |
| 2026-04-16 23:30 | -5.15390 | -80.59748 | 8063 ft | 215 kts | 200° |
| 2026-04-16 23:31 | -5.16809 | -80.60200 | 8093 ft | 214 kts | 191° |
| 2026-04-16 23:31 | -5.18311 | -80.60348 | 8080 ft | 219 kts | 184° |
| 2026-04-16 23:31 | -5.19834 | -80.60435 | 8062 ft | 220 kts | 184° |
| 2026-04-16 23:31 | -5.21362 | -80.60522 | 8073 ft | 219 kts | 184° |
| 2026-04-16 23:32 | -5.22896 | -80.60605 | 8074 ft | 221 kts | 184° |
| 2026-04-16 23:32 | -5.24430 | -80.60531 | 8059 ft | 222 kts | 168° |
| 2026-04-16 23:32 | -5.25874 | -80.60041 | 8167 ft | 217 kts | 159° |
| 2026-04-16 23:32 | -5.27286 | -80.59516 | 8285 ft | 216 kts | 162° |
| 2026-04-16 23:33 | -5.28710 | -80.59048 | 8404 ft | 214 kts | 163° |
| 2026-04-16 23:33 | -5.30102 | -80.58611 | 8653 ft | 206 kts | 163° |
| 2026-04-16 23:33 | -5.31455 | -80.58193 | 8840 ft | 202 kts | 164° |
| 2026-04-16 23:33 | -5.32792 | -80.57783 | 8995 ft | 200 kts | 163° |
| 2026-04-16 23:34 | -5.34118 | -80.57367 | 9137 ft | 199 kts | 163° |
| 2026-04-16 23:34 | -5.35461 | -80.56928 | 9136 ft | 207 kts | 164° |
| 2026-04-16 23:34 | -5.36871 | -80.56541 | 9122 ft | 212 kts | 165° |
| 2026-04-16 23:34 | -5.38299 | -80.56111 | 9108 ft | 216 kts | 164° |
| 2026-04-16 23:35 | -5.39750 | -80.55672 | 9110 ft | 218 kts | 164° |
| 2026-04-16 23:35 | -5.41210 | -80.55236 | 9110 ft | 220 kts | 165° |
| 2026-04-16 23:35 | -5.42689 | -80.54797 | 9098 ft | 221 kts | 165° |
| 2026-04-16 23:35 | -5.44163 | -80.54358 | 9117 ft | 221 kts | 164° |
| 2026-04-16 23:36 | -5.45638 | -80.53918 | 9116 ft | 222 kts | 164° |
| 2026-04-16 23:36 | -5.47118 | -80.53472 | 9111 ft | 222 kts | 164° |
| 2026-04-16 23:36 | -5.48595 | -80.53023 | 9112 ft | 222 kts | 164° |
| 2026-04-16 23:36 | -5.50085 | -80.52574 | 9038 ft | 226 kts | 165° |
| 2026-04-16 23:37 | -5.51604 | -80.52122 | 8980 ft | 227 kts | 164° |
| 2026-04-16 23:37 | -5.53105 | -80.51674 | 9008 ft | 224 kts | 164° |
| 2026-04-16 23:37 | -5.54592 | -80.51228 | 9044 ft | 222 kts | 164° |
| 2026-04-16 23:37 | -5.56065 | -80.50785 | 9086 ft | 221 kts | 164° |
| 2026-04-16 23:38 | -5.57535 | -80.50342 | 9107 ft | 221 kts | 164° |
| 2026-04-16 23:38 | -5.59021 | -80.49893 | 9049 ft | 223 kts | 164° |
| 2026-04-16 23:38 | -5.60503 | -80.49444 | 9079 ft | 222 kts | 164° |
| 2026-04-16 23:38 | -5.61953 | -80.49006 | 9090 ft | 222 kts | 164° |
| 2026-04-16 23:39 | -5.63444 | -80.48556 | 9039 ft | 224 kts | 164° |
| 2026-04-16 23:39 | -5.64956 | -80.48102 | 8933 ft | 229 kts | 164° |
| 2026-04-16 23:39 | -5.66491 | -80.47636 | 8962 ft | 226 kts | 164° |
| 2026-04-16 23:39 | -5.67961 | -80.47187 | 9024 ft | 222 kts | 164° |
| 2026-04-16 23:40 | -5.69428 | -80.46739 | 9093 ft | 219 kts | 164° |
| 2026-04-16 23:40 | -5.70895 | -80.46291 | 9091 ft | 221 kts | 164° |
| 2026-04-16 23:40 | -5.72363 | -80.45843 | 9115 ft | 220 kts | 164° |
| 2026-04-16 23:40 | -5.73830 | -80.45397 | 9124 ft | 220 kts | 164° |
| 2026-04-16 23:41 | -5.75301 | -80.44948 | 9119 ft | 221 kts | 164° |
| 2026-04-16 23:41 | -5.76773 | -80.44503 | 9117 ft | 221 kts | 164° |
| 2026-04-16 23:41 | -5.78255 | -80.44054 | 9057 ft | 225 kts | 164° |
| 2026-04-16 23:41 | -5.79750 | -80.43600 | 9079 ft | 223 kts | 164° |
| 2026-04-16 23:42 | -5.81223 | -80.43151 | 9124 ft | 221 kts | 164° |
| 2026-04-16 23:42 | -5.82698 | -80.42701 | 9081 ft | 223 kts | 164° |
| 2026-04-16 23:42 | -5.84178 | -80.42249 | 9122 ft | 221 kts | 164° |
| 2026-04-16 23:42 | -5.85650 | -80.41797 | 9129 ft | 221 kts | 164° |
| 2026-04-16 23:43 | -5.87121 | -80.41345 | 9121 ft | 222 kts | 163° |
| 2026-04-16 23:43 | -5.88617 | -80.40883 | 9073 ft | 224 kts | 164° |
| 2026-04-16 23:43 | -5.90096 | -80.40426 | 9118 ft | 221 kts | 163° |
| 2026-04-16 23:43 | -5.91565 | -80.39970 | 9132 ft | 221 kts | 163° |
| 2026-04-16 23:44 | -5.93037 | -80.39515 | 9099 ft | 223 kts | 163° |
| 2026-04-16 23:44 | -5.94527 | -80.39052 | 9083 ft | 223 kts | 163° |
| 2026-04-16 23:44 | -5.96005 | -80.38593 | 9112 ft | 222 kts | 164° |
| 2026-04-16 23:44 | -5.97475 | -80.38134 | 9135 ft | 222 kts | 164° |
| 2026-04-16 23:45 | -5.98951 | -80.37675 | 9127 ft | 222 kts | 164° |
| 2026-04-16 23:45 | -6.00431 | -80.37216 | 9123 ft | 223 kts | 164° |
| 2026-04-16 23:45 | -6.01888 | -80.36774 | 9121 ft | 222 kts | 164° |
| 2026-04-16 23:45 | -6.03394 | -80.36321 | 9046 ft | 225 kts | 164° |
| 2026-04-16 23:46 | -6.04882 | -80.35870 | 9106 ft | 222 kts | 164° |
| 2026-04-16 23:46 | -6.06357 | -80.35422 | 9123 ft | 222 kts | 164° |
| 2026-04-16 23:46 | -6.07837 | -80.34972 | 9107 ft | 223 kts | 164° |
| 2026-04-16 23:46 | -6.09318 | -80.34520 | 9111 ft | 223 kts | 164° |
| 2026-04-16 23:47 | -6.10800 | -80.34066 | 9108 ft | 223 kts | 164° |
| 2026-04-16 23:47 | -6.12280 | -80.33611 | 9118 ft | 222 kts | 164° |
| 2026-04-16 23:47 | -6.13757 | -80.33157 | 9147 ft | 220 kts | 164° |
| 2026-04-16 23:47 | -6.15224 | -80.32706 | 9135 ft | 222 kts | 164° |
| 2026-04-16 23:48 | -6.16200 | -80.32403 | 9129 ft | 222 kts | 164° |
| 2026-04-16 23:48 | -6.17679 | -80.31945 | 9123 ft | 223 kts | 164° |
| 2026-04-16 23:48 | -6.19161 | -80.31486 | 9132 ft | 222 kts | 163° |
| 2026-04-16 23:48 | -6.20634 | -80.31029 | 9120 ft | 223 kts | 164° |
| 2026-04-16 23:49 | -6.22141 | -80.30563 | 9033 ft | 227 kts | 164° |
| 2026-04-16 23:49 | -6.23635 | -80.30100 | 9079 ft | 223 kts | 164° |
| 2026-04-16 23:49 | -6.25111 | -80.29645 | 9131 ft | 221 kts | 164° |
| 2026-04-16 23:49 | -6.26580 | -80.29193 | 9134 ft | 221 kts | 164° |
| 2026-04-16 23:50 | -6.28051 | -80.28741 | 9130 ft | 221 kts | 164° |
| 2026-04-16 23:50 | -6.29525 | -80.28287 | 9132 ft | 221 kts | 164° |
| 2026-04-16 23:50 | -6.30995 | -80.27836 | 9131 ft | 222 kts | 164° |
| 2026-04-16 23:50 | -6.32472 | -80.27386 | 9127 ft | 221 kts | 164° |
| 2026-04-16 23:51 | -6.33944 | -80.26942 | 9137 ft | 221 kts | 164° |
| 2026-04-16 23:51 | -6.35415 | -80.26498 | 9135 ft | 221 kts | 164° |
| 2026-04-16 23:51 | -6.36884 | -80.26053 | 9134 ft | 221 kts | 163° |
| 2026-04-16 23:51 | -6.38352 | -80.25604 | 9136 ft | 220 kts | 163° |
| 2026-04-16 23:52 | -6.39813 | -80.25157 | 9135 ft | 220 kts | 163° |
| 2026-04-16 23:52 | -6.41274 | -80.24705 | 9134 ft | 220 kts | 163° |
| 2026-04-16 23:52 | -6.42733 | -80.24251 | 9134 ft | 220 kts | 163° |
| 2026-04-16 23:52 | -6.44191 | -80.23795 | 9134 ft | 220 kts | 163° |
| 2026-04-16 23:53 | -6.45651 | -80.23337 | 9134 ft | 220 kts | 163° |
| 2026-04-16 23:53 | -6.47108 | -80.22879 | 9138 ft | 220 kts | 163° |
| 2026-04-16 23:53 | -6.48565 | -80.22422 | 9137 ft | 220 kts | 163° |
| 2026-04-16 23:53 | -6.50025 | -80.21966 | 9137 ft | 220 kts | 163° |
| 2026-04-16 23:54 | -6.51483 | -80.21510 | 9139 ft | 220 kts | 163° |
| 2026-04-16 23:54 | -6.52942 | -80.21057 | 9139 ft | 220 kts | 163° |
| 2026-04-16 23:54 | -6.54403 | -80.20612 | 9141 ft | 219 kts | 163° |
| 2026-04-16 23:54 | -6.55865 | -80.20167 | 9141 ft | 219 kts | 163° |
| 2026-04-16 23:55 | -6.57326 | -80.19722 | 9142 ft | 219 kts | 163° |
| 2026-04-16 23:55 | -6.58768 | -80.19282 | 9140 ft | 219 kts | 163° |
| 2026-04-16 23:55 | -6.60229 | -80.18836 | 9144 ft | 219 kts | 163° |
| 2026-04-16 23:55 | -6.61691 | -80.18389 | 9146 ft | 219 kts | 163° |
| 2026-04-16 23:56 | -6.63150 | -80.17941 | 9145 ft | 220 kts | 163° |
| 2026-04-16 23:56 | -6.64610 | -80.17491 | 9145 ft | 219 kts | 163° |
| 2026-04-16 23:56 | -6.66070 | -80.17039 | 9140 ft | 220 kts | 163° |
| 2026-04-16 23:56 | -6.67529 | -80.16582 | 9133 ft | 219 kts | 163° |
| 2026-04-16 23:57 | -6.68975 | -80.16125 | 9130 ft | 218 kts | 163° |
| 2026-04-16 23:57 | -6.70426 | -80.15666 | 9114 ft | 218 kts | 164° |
| 2026-04-16 23:57 | -6.71874 | -80.15213 | 9118 ft | 218 kts | 164° |
| 2026-04-16 23:57 | -6.73327 | -80.14766 | 9108 ft | 219 kts | 164° |
| 2026-04-16 23:58 | -6.74785 | -80.14327 | 9112 ft | 219 kts | 164° |
| 2026-04-16 23:58 | -6.76238 | -80.13888 | 9111 ft | 218 kts | 164° |
| 2026-04-16 23:58 | -6.77692 | -80.13442 | 9086 ft | 219 kts | 164° |
| 2026-04-16 23:58 | -6.79150 | -80.12995 | 9068 ft | 220 kts | 164° |
| 2026-04-16 23:59 | -6.80620 | -80.12542 | 9036 ft | 220 kts | 163° |
| 2026-04-16 23:59 | -6.82036 | -80.11978 | 9070 ft | 218 kts | 162° |
| 2026-04-16 23:59 | -6.83482 | -80.11506 | 9063 ft | 218 kts | 164° |
| 2026-04-16 23:59 | -6.84927 | -80.11057 | 9112 ft | 216 kts | 164° |
| 2026-04-17 00:00 | -6.86364 | -80.10616 | 9147 ft | 215 kts | 164° |
| 2026-04-17 00:00 | -6.87800 | -80.10174 | 9137 ft | 217 kts | 163° |
| 2026-04-17 00:00 | -6.89243 | -80.09729 | 9161 ft | 217 kts | 163° |
| 2026-04-17 00:00 | -6.90692 | -80.09284 | 9136 ft | 219 kts | 164° |
| 2026-04-17 00:01 | -6.92118 | -80.08767 | 9161 ft | 217 kts | 154° |
| 2026-04-17 00:01 | -6.93371 | -80.07926 | 9180 ft | 217 kts | 143° |
| 2026-04-17 00:01 | -6.94559 | -80.06977 | 9159 ft | 219 kts | 142° |
| 2026-04-17 00:01 | -6.95755 | -80.06034 | 9170 ft | 218 kts | 143° |
| 2026-04-17 00:02 | -6.96958 | -80.05101 | 9167 ft | 219 kts | 143° |
| 2026-04-17 00:02 | -6.98168 | -80.04172 | 9172 ft | 219 kts | 144° |
| 2026-04-17 00:02 | -6.99386 | -80.03257 | 9165 ft | 219 kts | 144° |
| 2026-04-17 00:02 | -7.00611 | -80.02341 | 9169 ft | 219 kts | 144° |
| 2026-04-17 00:03 | -7.01828 | -80.01425 | 9162 ft | 218 kts | 144° |
| 2026-04-17 00:03 | -7.03041 | -80.00506 | 9166 ft | 218 kts | 144° |
| 2026-04-17 00:03 | -7.04256 | -79.99583 | 9175 ft | 219 kts | 144° |
| 2026-04-17 00:03 | -7.05471 | -79.98658 | 9176 ft | 219 kts | 143° |
| 2026-04-17 00:04 | -7.06681 | -79.97724 | 9179 ft | 219 kts | 143° |
| 2026-04-17 00:04 | -7.07879 | -79.96771 | 9176 ft | 219 kts | 142° |
| 2026-04-17 00:04 | -7.09068 | -79.95810 | 9177 ft | 219 kts | 142° |
| 2026-04-17 00:04 | -7.10250 | -79.94837 | 9176 ft | 220 kts | 141° |
| 2026-04-17 00:05 | -7.11418 | -79.93844 | 9179 ft | 219 kts | 140° |
| 2026-04-17 00:05 | -7.12568 | -79.92836 | 9179 ft | 219 kts | 140° |
| 2026-04-17 00:05 | -7.13706 | -79.91811 | 9180 ft | 220 kts | 139° |
| 2026-04-17 00:05 | -7.14841 | -79.90779 | 9178 ft | 220 kts | 139° |
| 2026-04-17 00:06 | -7.15949 | -79.89751 | 9175 ft | 220 kts | 139° |
| 2026-04-17 00:06 | -7.17069 | -79.88704 | 9176 ft | 220 kts | 139° |
| 2026-04-17 00:06 | -7.18190 | -79.87656 | 9179 ft | 220 kts | 139° |
| 2026-04-17 00:06 | -7.19321 | -79.86622 | 9171 ft | 220 kts | 139° |
| 2026-04-17 00:07 | -7.20456 | -79.85589 | 9172 ft | 220 kts | 139° |
| 2026-04-17 00:07 | -7.21603 | -79.84567 | 9171 ft | 220 kts | 140° |
| 2026-04-17 00:07 | -7.22765 | -79.83563 | 9171 ft | 220 kts | 141° |
| 2026-04-17 00:07 | -7.23937 | -79.82571 | 9172 ft | 220 kts | 141° |
| 2026-04-17 00:08 | -7.25110 | -79.81584 | 9169 ft | 220 kts | 142° |
| 2026-04-17 00:08 | -7.26289 | -79.80604 | 9160 ft | 220 kts | 142° |
| 2026-04-17 00:08 | -7.27481 | -79.79639 | 9175 ft | 219 kts | 142° |
| 2026-04-17 00:08 | -7.28669 | -79.78683 | 9168 ft | 218 kts | 143° |
| 2026-04-17 00:09 | -7.29857 | -79.77733 | 9172 ft | 218 kts | 143° |
| 2026-04-17 00:09 | -7.31053 | -79.76791 | 9175 ft | 218 kts | 143° |
| 2026-04-17 00:09 | -7.32248 | -79.75848 | 9171 ft | 219 kts | 143° |
| 2026-04-17 00:09 | -7.33452 | -79.74908 | 9172 ft | 219 kts | 143° |
| 2026-04-17 00:10 | -7.34642 | -79.73957 | 9177 ft | 218 kts | 143° |
| 2026-04-17 00:10 | -7.35830 | -79.73000 | 9171 ft | 219 kts | 142° |
| 2026-04-17 00:10 | -7.37015 | -79.72036 | 9159 ft | 219 kts | 142° |
| 2026-04-17 00:10 | -7.38203 | -79.71057 | 9081 ft | 224 kts | 142° |
| 2026-04-17 00:11 | -7.39405 | -79.70054 | 9066 ft | 222 kts | 141° |
| 2026-04-17 00:11 | -7.40569 | -79.69055 | 9128 ft | 218 kts | 141° |
| 2026-04-17 00:11 | -7.41711 | -79.68065 | 9163 ft | 217 kts | 140° |
| 2026-04-17 00:11 | -7.42859 | -79.67054 | 9139 ft | 218 kts | 140° |
| 2026-04-17 00:12 | -7.43997 | -79.66036 | 9122 ft | 219 kts | 140° |
| 2026-04-17 00:12 | -7.45127 | -79.65021 | 9167 ft | 217 kts | 140° |
| 2026-04-17 00:12 | -7.46263 | -79.64015 | 9164 ft | 218 kts | 140° |
| 2026-04-17 00:12 | -7.47407 | -79.63009 | 9164 ft | 218 kts | 140° |
| 2026-04-17 00:13 | -7.48534 | -79.62019 | 9164 ft | 218 kts | 140° |
| 2026-04-17 00:13 | -7.49711 | -79.61009 | 9145 ft | 219 kts | 141° |
| 2026-04-17 00:13 | -7.50873 | -79.60018 | 9151 ft | 218 kts | 141° |
| 2026-04-17 00:13 | -7.52018 | -79.59052 | 9175 ft | 218 kts | 141° |
| 2026-04-17 00:14 | -7.53186 | -79.58073 | 9157 ft | 218 kts | 142° |
| 2026-04-17 00:14 | -7.54357 | -79.57103 | 9161 ft | 218 kts | 142° |
| 2026-04-17 00:14 | -7.55529 | -79.56142 | 9164 ft | 217 kts | 142° |
| 2026-04-17 00:14 | -7.56700 | -79.55181 | 9164 ft | 217 kts | 142° |
| 2026-04-17 00:15 | -7.57870 | -79.54218 | 9082 ft | 221 kts | 142° |
| 2026-04-17 00:15 | -7.59077 | -79.53225 | 9002 ft | 223 kts | 142° |
| 2026-04-17 00:15 | -7.60274 | -79.52250 | 9079 ft | 219 kts | 142° |
| 2026-04-17 00:15 | -7.61442 | -79.51287 | 9135 ft | 215 kts | 142° |
| 2026-04-17 00:16 | -7.62594 | -79.50326 | 9172 ft | 215 kts | 141° |
| 2026-04-17 00:16 | -7.63756 | -79.49357 | 9153 ft | 218 kts | 141° |
| 2026-04-17 00:16 | -7.64926 | -79.48377 | 9152 ft | 218 kts | 141° |
| 2026-04-17 00:16 | -7.66078 | -79.47394 | 9167 ft | 217 kts | 141° |
| 2026-04-17 00:17 | -7.67223 | -79.46400 | 9161 ft | 217 kts | 141° |
| 2026-04-17 00:17 | -7.68368 | -79.45406 | 9165 ft | 218 kts | 140° |
| 2026-04-17 00:17 | -7.69516 | -79.44408 | 9165 ft | 217 kts | 141° |
| 2026-04-17 00:17 | -7.70657 | -79.43411 | 9159 ft | 218 kts | 141° |
| 2026-04-17 00:18 | -7.71808 | -79.42417 | 9168 ft | 218 kts | 141° |
| 2026-04-17 00:18 | -7.72970 | -79.41432 | 9170 ft | 219 kts | 141° |
| 2026-04-17 00:18 | -7.74142 | -79.40454 | 9170 ft | 218 kts | 141° |
| 2026-04-17 00:18 | -7.75312 | -79.39477 | 9170 ft | 219 kts | 142° |
| 2026-04-17 00:19 | -7.76488 | -79.38506 | 9170 ft | 218 kts | 142° |
| 2026-04-17 00:19 | -7.77668 | -79.37533 | 9159 ft | 220 kts | 142° |
| 2026-04-17 00:19 | -7.78855 | -79.36556 | 9153 ft | 219 kts | 141° |
| 2026-04-17 00:19 | -7.80021 | -79.35577 | 9174 ft | 218 kts | 141° |
| 2026-04-17 00:20 | -7.81182 | -79.34590 | 9165 ft | 219 kts | 141° |
| 2026-04-17 00:20 | -7.82346 | -79.33601 | 9165 ft | 218 kts | 141° |
| 2026-04-17 00:20 | -7.83501 | -79.32608 | 9166 ft | 218 kts | 141° |
| 2026-04-17 00:20 | -7.84647 | -79.31614 | 9161 ft | 218 kts | 141° |
| 2026-04-17 00:21 | -7.85813 | -79.30617 | 9156 ft | 219 kts | 141° |
| 2026-04-17 00:21 | -7.86982 | -79.29634 | 9163 ft | 219 kts | 141° |
| 2026-04-17 00:21 | -7.88152 | -79.28656 | 9169 ft | 218 kts | 141° |
| 2026-04-17 00:21 | -7.89319 | -79.27677 | 9180 ft | 218 kts | 141° |
| 2026-04-17 00:22 | -7.91661 | -79.25721 | 9173 ft | 218 kts | 141° |
| 2026-04-17 00:22 | -7.92814 | -79.24745 | 9169 ft | 219 kts | 141° |
| 2026-04-17 00:22 | -7.93972 | -79.23750 | 9172 ft | 218 kts | 141° |
| 2026-04-17 00:23 | -7.95150 | -79.22747 | 9172 ft | 219 kts | 141° |
| 2026-04-17 00:23 | -7.96298 | -79.21770 | 9171 ft | 219 kts | 141° |
| 2026-04-17 00:23 | -7.97461 | -79.20784 | 9162 ft | 219 kts | 141° |
| 2026-04-17 00:23 | -7.98630 | -79.19794 | 9154 ft | 218 kts | 141° |
| 2026-04-17 00:24 | -7.99799 | -79.18816 | 9165 ft | 219 kts | 142° |
| 2026-04-17 00:24 | -8.00972 | -79.17839 | 9161 ft | 219 kts | 141° |
| 2026-04-17 00:24 | -8.02137 | -79.16851 | 9162 ft | 219 kts | 141° |
| 2026-04-17 00:24 | -8.03297 | -79.15863 | 9172 ft | 219 kts | 141° |
| 2026-04-17 00:25 | -8.04466 | -79.14877 | 9167 ft | 219 kts | 141° |
| 2026-04-17 00:25 | -8.05631 | -79.13887 | 9166 ft | 219 kts | 141° |
| 2026-04-17 00:25 | -8.06793 | -79.12899 | 9166 ft | 218 kts | 141° |
| 2026-04-17 00:25 | -8.07959 | -79.11921 | 9169 ft | 218 kts | 141° |
| 2026-04-17 00:26 | -8.09114 | -79.10927 | 9173 ft | 218 kts | 140° |
| 2026-04-17 00:26 | -8.10258 | -79.09921 | 9171 ft | 218 kts | 140° |
| 2026-04-17 00:26 | -8.11407 | -79.08917 | 9165 ft | 219 kts | 140° |
| 2026-04-17 00:26 | -8.12615 | -79.07993 | 9169 ft | 218 kts | 150° |
| 2026-04-17 00:27 | -8.13934 | -79.07237 | 9174 ft | 218 kts | 152° |
| 2026-04-17 00:27 | -8.15267 | -79.06502 | 9168 ft | 219 kts | 152° |
| 2026-04-17 00:27 | -8.16596 | -79.05767 | 9213 ft | 218 kts | 153° |
| 2026-04-17 00:27 | -8.17963 | -79.05099 | 9177 ft | 220 kts | 156° |
| 2026-04-17 00:28 | -8.19354 | -79.04445 | 9169 ft | 220 kts | 155° |
| 2026-04-17 00:28 | -8.20735 | -79.03779 | 9111 ft | 219 kts | 154° |
| 2026-04-17 00:28 | -8.22093 | -79.03107 | 9169 ft | 216 kts | 154° |
| 2026-04-17 00:28 | -8.23442 | -79.02424 | 9176 ft | 217 kts | 153° |
| 2026-04-17 00:29 | -8.24789 | -79.01727 | 9174 ft | 218 kts | 152° |
| 2026-04-17 00:29 | -8.26071 | -79.00903 | 9173 ft | 219 kts | 146° |
| 2026-04-17 00:29 | -8.27354 | -79.00080 | 9162 ft | 219 kts | 149° |
| 2026-04-17 00:29 | -8.28673 | -78.99305 | 9158 ft | 219 kts | 151° |
| 2026-04-17 00:30 | -8.30012 | -78.98581 | 9176 ft | 218 kts | 153° |
| 2026-04-17 00:30 | -8.31377 | -78.97902 | 9195 ft | 219 kts | 155° |
| 2026-04-17 00:30 | -8.32763 | -78.97269 | 9198 ft | 218 kts | 156° |
| 2026-04-17 00:30 | -8.34161 | -78.96670 | 9192 ft | 219 kts | 158° |
| 2026-04-17 00:31 | -8.35573 | -78.96093 | 9194 ft | 219 kts | 159° |
| 2026-04-17 00:31 | -8.36986 | -78.95531 | 9196 ft | 218 kts | 159° |
| 2026-04-17 00:31 | -8.38401 | -78.94969 | 9198 ft | 218 kts | 159° |
| 2026-04-17 00:31 | -8.39807 | -78.94393 | 9202 ft | 218 kts | 158° |
| 2026-04-17 00:32 | -8.41200 | -78.93782 | 9201 ft | 218 kts | 156° |
| 2026-04-17 00:32 | -8.42576 | -78.93129 | 9198 ft | 219 kts | 154° |
| 2026-04-17 00:32 | -8.43934 | -78.92434 | 9186 ft | 219 kts | 153° |
| 2026-04-17 00:32 | -8.45272 | -78.91699 | 9196 ft | 219 kts | 151° |
| 2026-04-17 00:33 | -8.46587 | -78.90923 | 9193 ft | 220 kts | 149° |
| 2026-04-17 00:33 | -8.47891 | -78.90111 | 9179 ft | 220 kts | 148° |
| 2026-04-17 00:33 | -8.49170 | -78.89277 | 9170 ft | 220 kts | 147° |
| 2026-04-17 00:33 | -8.50456 | -78.88421 | 9161 ft | 220 kts | 147° |
| 2026-04-17 00:34 | -8.51726 | -78.87566 | 9175 ft | 220 kts | 146° |
| 2026-04-17 00:34 | -8.52996 | -78.86711 | 9168 ft | 220 kts | 147° |
| 2026-04-17 00:34 | -8.54277 | -78.85863 | 9169 ft | 220 kts | 147° |
| 2026-04-17 00:34 | -8.55129 | -78.85314 | 9184 ft | 219 kts | 148° |
| 2026-04-17 00:35 | -8.56850 | -78.84253 | 9188 ft | 219 kts | 150° |
| 2026-04-17 00:35 | -8.58170 | -78.83482 | 9213 ft | 219 kts | 151° |
| 2026-04-17 00:35 | -8.59509 | -78.82745 | 9215 ft | 219 kts | 153° |
| 2026-04-17 00:35 | -8.60865 | -78.82037 | 9214 ft | 219 kts | 153° |
| 2026-04-17 00:36 | -8.62228 | -78.81349 | 9219 ft | 219 kts | 154° |
| 2026-04-17 00:36 | -8.63152 | -78.80892 | 9204 ft | 219 kts | 155° |
| 2026-04-17 00:36 | -8.64527 | -78.80225 | 9207 ft | 219 kts | 155° |
| 2026-04-17 00:36 | -8.65901 | -78.79558 | 9206 ft | 219 kts | 155° |
| 2026-04-17 00:37 | -8.67269 | -78.78880 | 9201 ft | 219 kts | 154° |
| 2026-04-17 00:37 | -8.68626 | -78.78184 | 9208 ft | 219 kts | 153° |
| 2026-04-17 00:37 | -8.69970 | -78.77464 | 9208 ft | 219 kts | 152° |
| 2026-04-17 00:37 | -8.71305 | -78.76721 | 9205 ft | 219 kts | 151° |
| 2026-04-17 00:38 | -8.72613 | -78.75965 | 9208 ft | 219 kts | 150° |
| 2026-04-17 00:38 | -8.73925 | -78.75183 | 9206 ft | 219 kts | 149° |
| 2026-04-17 00:38 | -8.75229 | -78.74386 | 9207 ft | 219 kts | 149° |
| 2026-04-17 00:38 | -8.76534 | -78.73585 | 9206 ft | 219 kts | 149° |
| 2026-04-17 00:39 | -8.77837 | -78.72800 | 9205 ft | 216 kts | 150° |
| 2026-04-17 00:39 | -8.79127 | -78.72042 | 9202 ft | 213 kts | 150° |
| 2026-04-17 00:39 | -8.80411 | -78.71307 | 9201 ft | 211 kts | 151° |
| 2026-04-17 00:39 | -8.81692 | -78.70592 | 9192 ft | 209 kts | 152° |
| 2026-04-17 00:40 | -8.82966 | -78.69895 | 9199 ft | 207 kts | 152° |
| 2026-04-17 00:40 | -8.84237 | -78.69209 | 9204 ft | 207 kts | 153° |
| 2026-04-17 00:40 | -8.85507 | -78.68533 | 9224 ft | 207 kts | 153° |
| 2026-04-17 00:40 | -8.86795 | -78.67884 | 9224 ft | 207 kts | 155° |
| 2026-04-17 00:41 | -8.88074 | -78.67219 | 9219 ft | 207 kts | 153° |
| 2026-04-17 00:41 | -8.89330 | -78.66515 | 9223 ft | 206 kts | 152° |
| 2026-04-17 00:41 | -8.90578 | -78.65795 | 9223 ft | 206 kts | 152° |
| 2026-04-17 00:41 | -8.91821 | -78.65072 | 9221 ft | 205 kts | 151° |
| 2026-04-17 00:42 | -8.93057 | -78.64367 | 9216 ft | 204 kts | 151° |
| 2026-04-17 00:42 | -8.94290 | -78.63663 | 9217 ft | 203 kts | 151° |
| 2026-04-17 00:42 | -8.95523 | -78.62959 | 9213 ft | 204 kts | 151° |
| 2026-04-17 00:42 | -8.96757 | -78.62259 | 9214 ft | 204 kts | 151° |
| 2026-04-17 00:43 | -8.97998 | -78.61561 | 9203 ft | 204 kts | 152° |
| 2026-04-17 00:43 | -8.99241 | -78.60866 | 9207 ft | 204 kts | 152° |
| 2026-04-17 00:43 | -9.00479 | -78.60178 | 9219 ft | 203 kts | 152° |
| 2026-04-17 00:43 | -9.01720 | -78.59489 | 9211 ft | 203 kts | 152° |
| 2026-04-17 00:44 | -9.02960 | -78.58800 | 9210 ft | 203 kts | 152° |
| 2026-04-17 00:44 | -9.04180 | -78.58118 | 9218 ft | 203 kts | 152° |
| 2026-04-17 00:44 | -9.05414 | -78.57425 | 9218 ft | 203 kts | 152° |
| 2026-04-17 00:44 | -9.06653 | -78.56727 | 9205 ft | 204 kts | 152° |
| 2026-04-17 00:45 | -9.07909 | -78.56022 | 9214 ft | 203 kts | 152° |
| 2026-04-17 00:45 | -9.09129 | -78.55340 | 9219 ft | 203 kts | 152° |
| 2026-04-17 00:45 | -9.10366 | -78.54647 | 9218 ft | 203 kts | 152° |
| 2026-04-17 00:45 | -9.11604 | -78.53954 | 9213 ft | 203 kts | 152° |
| 2026-04-17 00:46 | -9.12857 | -78.53251 | 9214 ft | 203 kts | 150° |
| 2026-04-17 00:46 | -9.14003 | -78.52457 | 9219 ft | 203 kts | 153° |
| 2026-04-17 00:46 | -9.15317 | -78.51949 | 9222 ft | 202 kts | 155° |
| 2026-04-17 00:46 | -9.16568 | -78.51296 | 9217 ft | 203 kts | 156° |
| 2026-04-17 00:47 | -9.17856 | -78.50705 | 9192 ft | 204 kts | 156° |
| 2026-04-17 00:47 | -9.19147 | -78.50112 | 9211 ft | 203 kts | 156° |
| 2026-04-17 00:47 | -9.20431 | -78.49519 | 9206 ft | 203 kts | 155° |
| 2026-04-17 00:47 | -9.21712 | -78.48912 | 9155 ft | 206 kts | 155° |
| 2026-04-17 00:48 | -9.23048 | -78.48280 | 8936 ft | 215 kts | 155° |
| 2026-04-17 00:48 | -9.24387 | -78.47646 | 8958 ft | 210 kts | 155° |
| 2026-04-17 00:48 | -9.25700 | -78.47025 | 9038 ft | 205 kts | 155° |
| 2026-04-17 00:48 | -9.26983 | -78.46419 | 9104 ft | 202 kts | 155° |
| 2026-04-17 00:49 | -9.28245 | -78.45825 | 9170 ft | 199 kts | 155° |
| 2026-04-17 00:49 | -9.29500 | -78.45237 | 9210 ft | 199 kts | 155° |
| 2026-04-17 00:49 | -9.30758 | -78.44645 | 9210 ft | 200 kts | 155° |
| 2026-04-17 00:49 | -9.32022 | -78.44050 | 9205 ft | 201 kts | 155° |
| 2026-04-17 00:50 | -9.33294 | -78.43447 | 9205 ft | 202 kts | 155° |
| 2026-04-17 00:50 | -9.34578 | -78.42863 | 9206 ft | 202 kts | 160° |
| 2026-04-17 00:50 | -9.35912 | -78.42417 | 9217 ft | 202 kts | 158° |
| 2026-04-17 00:50 | -9.37211 | -78.41864 | 9209 ft | 203 kts | 158° |
| 2026-04-17 00:51 | -9.38514 | -78.41320 | 9208 ft | 203 kts | 158° |
| 2026-04-17 00:51 | -9.39826 | -78.40791 | 9204 ft | 203 kts | 159° |
| 2026-04-17 00:51 | -9.41144 | -78.40274 | 9202 ft | 203 kts | 159° |
| 2026-04-17 00:51 | -9.42468 | -78.39764 | 9199 ft | 203 kts | 159° |
| 2026-04-17 00:52 | -9.43790 | -78.39261 | 9221 ft | 203 kts | 160° |
| 2026-04-17 00:52 | -9.45118 | -78.38761 | 9205 ft | 204 kts | 160° |
| 2026-04-17 00:52 | -9.46448 | -78.38261 | 9209 ft | 204 kts | 160° |
| 2026-04-17 00:52 | -9.47774 | -78.37760 | 9215 ft | 203 kts | 160° |
| 2026-04-17 00:53 | -9.49103 | -78.37257 | 9211 ft | 203 kts | 160° |
| 2026-04-17 00:53 | -9.50424 | -78.36752 | 9206 ft | 204 kts | 159° |
| 2026-04-17 00:53 | -9.51745 | -78.36237 | 9213 ft | 203 kts | 159° |
| 2026-04-17 00:53 | -9.53059 | -78.35714 | 9222 ft | 203 kts | 159° |
| 2026-04-17 00:54 | -9.54369 | -78.35179 | 9214 ft | 203 kts | 158° |
| 2026-04-17 00:54 | -9.55672 | -78.34632 | 9223 ft | 203 kts | 158° |
| 2026-04-17 00:54 | -9.56971 | -78.34072 | 9221 ft | 203 kts | 157° |
| 2026-04-17 00:54 | -9.58264 | -78.33498 | 9222 ft | 203 kts | 156° |
| 2026-04-17 00:55 | -9.59556 | -78.32910 | 9222 ft | 203 kts | 156° |
| 2026-04-17 00:55 | -9.60856 | -78.32304 | 9112 ft | 209 kts | 155° |
| 2026-04-17 00:55 | -9.62157 | -78.31683 | 9180 ft | 204 kts | 155° |
| 2026-04-17 00:55 | -9.63430 | -78.31068 | 9219 ft | 202 kts | 155° |
| 2026-04-17 00:56 | -9.64701 | -78.30442 | 9215 ft | 204 kts | 154° |
| 2026-04-17 00:56 | -9.65972 | -78.29807 | 9221 ft | 203 kts | 154° |
| 2026-04-17 00:56 | -9.67219 | -78.29176 | 9219 ft | 203 kts | 154° |
| 2026-04-17 00:56 | -9.68484 | -78.28533 | 9221 ft | 204 kts | 154° |
| 2026-04-17 00:57 | -9.69747 | -78.27889 | 9222 ft | 203 kts | 154° |
| 2026-04-17 00:57 | -9.71012 | -78.27247 | 9221 ft | 204 kts | 154° |
| 2026-04-17 00:57 | -9.72285 | -78.26609 | 9219 ft | 204 kts | 154° |
| 2026-04-17 00:57 | -9.73562 | -78.25977 | 9219 ft | 204 kts | 154° |
| 2026-04-17 00:58 | -9.74835 | -78.25354 | 9218 ft | 203 kts | 155° |
| 2026-04-17 00:58 | -9.76109 | -78.24741 | 9233 ft | 203 kts | 155° |
| 2026-04-17 00:58 | -9.77391 | -78.24139 | 9233 ft | 203 kts | 156° |
| 2026-04-17 00:58 | -9.78678 | -78.23547 | 9229 ft | 203 kts | 156° |
| 2026-04-17 00:59 | -9.79974 | -78.22967 | 9226 ft | 203 kts | 157° |
| 2026-04-17 00:59 | -9.81272 | -78.22399 | 9229 ft | 203 kts | 157° |
| 2026-04-17 00:59 | -9.82574 | -78.21842 | 9228 ft | 204 kts | 158° |
| 2026-04-17 00:59 | -9.83887 | -78.21293 | 9230 ft | 204 kts | 158° |
| 2026-04-17 01:00 | -9.85203 | -78.20752 | 9227 ft | 204 kts | 158° |
| 2026-04-17 01:00 | -9.86517 | -78.20216 | 9227 ft | 203 kts | 159° |
| 2026-04-17 01:00 | -9.87828 | -78.19684 | 9229 ft | 203 kts | 159° |
| 2026-04-17 01:00 | -9.89139 | -78.19152 | 9232 ft | 203 kts | 159° |
| 2026-04-17 01:01 | -9.90457 | -78.18619 | 9230 ft | 204 kts | 159° |
| 2026-04-17 01:01 | -9.91776 | -78.18083 | 9226 ft | 204 kts | 158° |
| 2026-04-17 01:01 | -9.93088 | -78.17542 | 9225 ft | 204 kts | 158° |
| 2026-04-17 01:01 | -9.94402 | -78.16993 | 9223 ft | 204 kts | 158° |
| 2026-04-17 01:02 | -9.95715 | -78.16436 | 9224 ft | 204 kts | 158° |
| 2026-04-17 01:02 | -9.97023 | -78.15872 | 9226 ft | 204 kts | 157° |
| 2026-04-17 01:02 | -9.98327 | -78.15298 | 9225 ft | 205 kts | 156° |
| 2026-04-17 01:02 | -9.99613 | -78.14716 | 9223 ft | 202 kts | 156° |
| 2026-04-17 01:03 | -10.00885 | -78.14118 | 9229 ft | 202 kts | 156° |
| 2026-04-17 01:03 | -10.02152 | -78.13514 | 9223 ft | 202 kts | 155° |
| 2026-04-17 01:03 | -10.03422 | -78.12903 | 9225 ft | 202 kts | 155° |
| 2026-04-17 01:03 | -10.04697 | -78.12288 | 9224 ft | 203 kts | 155° |
| 2026-04-17 01:04 | -10.05967 | -78.11672 | 9225 ft | 203 kts | 155° |
| 2026-04-17 01:04 | -10.07234 | -78.11055 | 9224 ft | 201 kts | 155° |
| 2026-04-17 01:04 | -10.08492 | -78.10437 | 9224 ft | 200 kts | 155° |
| 2026-04-17 01:04 | -10.09747 | -78.09825 | 9232 ft | 200 kts | 155° |
| 2026-04-17 01:05 | -10.11001 | -78.09219 | 9245 ft | 200 kts | 156° |
| 2026-04-17 01:05 | -10.12268 | -78.08621 | 9238 ft | 202 kts | 156° |
| 2026-04-17 01:05 | -10.13544 | -78.08030 | 9239 ft | 201 kts | 156° |
| 2026-04-17 01:05 | -10.14826 | -78.07449 | 9239 ft | 203 kts | 157° |
| 2026-04-17 01:06 | -10.16119 | -78.06875 | 9236 ft | 203 kts | 157° |
| 2026-04-17 01:06 | -10.17412 | -78.06311 | 9239 ft | 201 kts | 158° |
| 2026-04-17 01:06 | -10.18697 | -78.05751 | 9240 ft | 201 kts | 158° |
| 2026-04-17 01:06 | -10.19981 | -78.05197 | 9240 ft | 201 kts | 158° |
| 2026-04-17 01:07 | -10.21281 | -78.04647 | 9235 ft | 203 kts | 158° |
| 2026-04-17 01:07 | -10.22590 | -78.04099 | 9233 ft | 203 kts | 158° |
| 2026-04-17 01:07 | -10.23899 | -78.03552 | 9227 ft | 204 kts | 158° |
| 2026-04-17 01:07 | -10.25200 | -78.03003 | 9231 ft | 201 kts | 158° |
| 2026-04-17 01:08 | -10.26491 | -78.02449 | 9229 ft | 201 kts | 158° |
| 2026-04-17 01:08 | -10.27787 | -78.01893 | 9230 ft | 203 kts | 158° |
| 2026-04-17 01:08 | -10.29089 | -78.01330 | 9236 ft | 204 kts | 157° |
| 2026-04-17 01:08 | -10.30383 | -78.00759 | 9233 ft | 201 kts | 157° |
| 2026-04-17 01:09 | -10.31660 | -78.00182 | 9232 ft | 201 kts | 156° |
| 2026-04-17 01:09 | -10.32934 | -77.99599 | 9234 ft | 202 kts | 156° |
| 2026-04-17 01:09 | -10.34218 | -77.99010 | 9233 ft | 203 kts | 156° |
| 2026-04-17 01:09 | -10.35504 | -77.98417 | 9231 ft | 202 kts | 156° |
| 2026-04-17 01:10 | -10.36780 | -77.97826 | 9233 ft | 202 kts | 156° |
| 2026-04-17 01:10 | -10.38058 | -77.97231 | 9234 ft | 201 kts | 156° |
| 2026-04-17 01:10 | -10.39327 | -77.96635 | 9234 ft | 201 kts | 156° |
| 2026-04-17 01:10 | -10.40597 | -77.96037 | 9234 ft | 201 kts | 156° |
| 2026-04-17 01:11 | -10.41869 | -77.95440 | 9238 ft | 203 kts | 156° |
| 2026-04-17 01:11 | -10.43153 | -77.94843 | 9241 ft | 203 kts | 156° |
| 2026-04-17 01:11 | -10.44445 | -77.94249 | 9243 ft | 204 kts | 156° |
| 2026-04-17 01:11 | -10.45720 | -77.93665 | 9242 ft | 204 kts | 156° |
| 2026-04-17 01:12 | -10.47013 | -77.93077 | 9243 ft | 203 kts | 156° |
| 2026-04-17 01:12 | -10.48307 | -77.92493 | 9240 ft | 203 kts | 156° |
| 2026-04-17 01:12 | -10.49602 | -77.91913 | 9230 ft | 204 kts | 157° |
| 2026-04-17 01:12 | -10.50899 | -77.91338 | 9234 ft | 203 kts | 157° |
| 2026-04-17 01:13 | -10.52199 | -77.90765 | 9236 ft | 204 kts | 157° |
| 2026-04-17 01:13 | -10.53502 | -77.90195 | 9233 ft | 204 kts | 157° |
| 2026-04-17 01:13 | -10.54805 | -77.89622 | 9237 ft | 204 kts | 157° |
| 2026-04-17 01:13 | -10.56108 | -77.89050 | 9237 ft | 204 kts | 157° |
| 2026-04-17 01:14 | -10.57410 | -77.88476 | 9237 ft | 204 kts | 157° |
| 2026-04-17 01:14 | -10.58708 | -77.87898 | 9238 ft | 204 kts | 156° |
| 2026-04-17 01:14 | -10.60006 | -77.87319 | 9236 ft | 204 kts | 156° |
| 2026-04-17 01:14 | -10.61298 | -77.86738 | 9236 ft | 203 kts | 156° |
| 2026-04-17 01:15 | -10.62590 | -77.86152 | 9237 ft | 203 kts | 156° |
| 2026-04-17 01:15 | -10.63881 | -77.85565 | 9227 ft | 204 kts | 156° |
| 2026-04-17 01:15 | -10.65173 | -77.84974 | 9235 ft | 204 kts | 156° |
| 2026-04-17 01:15 | -10.66463 | -77.84382 | 9231 ft | 203 kts | 156° |
| 2026-04-17 01:16 | -10.67751 | -77.83788 | 9233 ft | 203 kts | 156° |
| 2026-04-17 01:16 | -10.69041 | -77.83196 | 9232 ft | 204 kts | 156° |
| 2026-04-17 01:16 | -10.70334 | -77.82603 | 9231 ft | 203 kts | 156° |
| 2026-04-17 01:16 | -10.71619 | -77.82020 | 9233 ft | 202 kts | 156° |
| 2026-04-17 01:17 | -10.72899 | -77.81443 | 9235 ft | 201 kts | 156° |
| 2026-04-17 01:17 | -10.74182 | -77.80865 | 9246 ft | 203 kts | 156° |
| 2026-04-17 01:17 | -10.75476 | -77.80285 | 9245 ft | 203 kts | 156° |
| 2026-04-17 01:17 | -10.76774 | -77.79704 | 9246 ft | 203 kts | 156° |
| 2026-04-17 01:18 | -10.78063 | -77.79125 | 9239 ft | 202 kts | 156° |
| 2026-04-17 01:18 | -10.79346 | -77.78547 | 9240 ft | 202 kts | 156° |
| 2026-04-17 01:18 | -10.80638 | -77.77965 | 9239 ft | 203 kts | 156° |
| 2026-04-17 01:18 | -10.81928 | -77.77384 | 9240 ft | 202 kts | 156° |
| 2026-04-17 01:19 | -10.83222 | -77.76801 | 9236 ft | 204 kts | 156° |
| 2026-04-17 01:19 | -10.84520 | -77.76218 | 9237 ft | 204 kts | 156° |
| 2026-04-17 01:19 | -10.85820 | -77.75632 | 9236 ft | 204 kts | 156° |
| 2026-04-17 01:19 | -10.87117 | -77.75046 | 9237 ft | 204 kts | 156° |
| 2026-04-17 01:20 | -10.88410 | -77.74460 | 9237 ft | 202 kts | 156° |
| 2026-04-17 01:20 | -10.89694 | -77.73876 | 9232 ft | 202 kts | 156° |
| 2026-04-17 01:20 | -10.90958 | -77.73301 | 9233 ft | 202 kts | 156° |
| 2026-04-17 01:20 | -10.92246 | -77.72717 | 9231 ft | 203 kts | 156° |
| 2026-04-17 01:21 | -10.93540 | -77.72131 | 9234 ft | 203 kts | 156° |
| 2026-04-17 01:21 | -10.94831 | -77.71546 | 9230 ft | 204 kts | 156° |
| 2026-04-17 01:21 | -10.96125 | -77.70961 | 9213 ft | 204 kts | 156° |
| 2026-04-17 01:21 | -10.97429 | -77.70372 | 9124 ft | 208 kts | 156° |
| 2026-04-17 01:22 | -10.98770 | -77.69766 | 8986 ft | 213 kts | 156° |
| 2026-04-17 01:22 | -11.00130 | -77.69152 | 8890 ft | 215 kts | 156° |
| 2026-04-17 01:22 | -11.01503 | -77.68534 | 8762 ft | 219 kts | 156° |
| 2026-04-17 01:22 | -11.02918 | -77.67896 | 8527 ft | 225 kts | 156° |
| 2026-04-17 01:23 | -11.04347 | -77.67248 | 8370 ft | 226 kts | 156° |
| 2026-04-17 01:23 | -11.05785 | -77.66596 | 8243 ft | 226 kts | 156° |
| 2026-04-17 01:23 | -11.07221 | -77.65949 | 8117 ft | 226 kts | 156° |
| 2026-04-17 01:23 | -11.08652 | -77.65301 | 8011 ft | 224 kts | 156° |
| 2026-04-17 01:24 | -11.10057 | -77.64662 | 8040 ft | 218 kts | 156° |
| 2026-04-17 01:24 | -11.10986 | -77.64238 | 8045 ft | 216 kts | 156° |
| 2026-04-17 01:24 | -11.12351 | -77.63619 | 8064 ft | 214 kts | 156° |
| 2026-04-17 01:24 | -11.13706 | -77.63006 | 8056 ft | 212 kts | 156° |
| 2026-04-17 01:25 | -11.15055 | -77.62398 | 8050 ft | 212 kts | 156° |
| 2026-04-17 01:25 | -11.16394 | -77.61794 | 8047 ft | 209 kts | 156° |
| 2026-04-17 01:25 | -11.17715 | -77.61195 | 8050 ft | 207 kts | 156° |
| 2026-04-17 01:25 | -11.19028 | -77.60600 | 8053 ft | 206 kts | 156° |
| 2026-04-17 01:26 | -11.20317 | -77.60016 | 8044 ft | 205 kts | 156° |
| 2026-04-17 01:26 | -11.21633 | -77.59417 | 8045 ft | 204 kts | 156° |
| 2026-04-17 01:26 | -11.22928 | -77.58832 | 8047 ft | 204 kts | 156° |
| 2026-04-17 01:26 | -11.24225 | -77.58248 | 8046 ft | 204 kts | 156° |
| 2026-04-17 01:27 | -11.25514 | -77.57648 | 8050 ft | 203 kts | 155° |
| 2026-04-17 01:27 | -11.26776 | -77.57048 | 8055 ft | 203 kts | 155° |
| 2026-04-17 01:27 | -11.28053 | -77.56440 | 8055 ft | 203 kts | 155° |
| 2026-04-17 01:27 | -11.29331 | -77.55831 | 8051 ft | 203 kts | 154° |
| 2026-04-17 01:28 | -11.30490 | -77.55027 | 8058 ft | 202 kts | 146° |
| 2026-04-17 01:28 | -11.31706 | -77.54305 | 8046 ft | 204 kts | 154° |
| 2026-04-17 01:28 | -11.32977 | -77.53674 | 8051 ft | 203 kts | 154° |
| 2026-04-17 01:28 | -11.34241 | -77.53021 | 8044 ft | 203 kts | 153° |
| 2026-04-17 01:29 | -11.35489 | -77.52347 | 8042 ft | 203 kts | 152° |
| 2026-04-17 01:29 | -11.37967 | -77.50936 | 8042 ft | 204 kts | 150° |
| 2026-04-17 01:29 | -11.39193 | -77.50211 | 8049 ft | 203 kts | 149° |
| 2026-04-17 01:30 | -11.40420 | -77.49472 | 7962 ft | 208 kts | 149° |
| 2026-04-17 01:30 | -11.41657 | -77.48712 | 7971 ft | 206 kts | 149° |
| 2026-04-17 01:30 | -11.42874 | -77.47955 | 7975 ft | 205 kts | 148° |
| 2026-04-17 01:30 | -11.44083 | -77.47193 | 7948 ft | 206 kts | 148° |
| 2026-04-17 01:31 | -11.45303 | -77.46420 | 7948 ft | 206 kts | 148° |
| 2026-04-17 01:31 | -11.46517 | -77.45646 | 7951 ft | 204 kts | 148° |
| 2026-04-17 01:31 | -11.47694 | -77.44891 | 7997 ft | 201 kts | 148° |
| 2026-04-17 01:31 | -11.48885 | -77.44126 | 8010 ft | 201 kts | 148° |
| 2026-04-17 01:32 | -11.50062 | -77.43364 | 8031 ft | 200 kts | 148° |
| 2026-04-17 01:32 | -11.51240 | -77.42598 | 8045 ft | 201 kts | 147° |
| 2026-04-17 01:32 | -11.52422 | -77.41826 | 8046 ft | 202 kts | 147° |
| 2026-04-17 01:32 | -11.53599 | -77.41050 | 8043 ft | 202 kts | 147° |
| 2026-04-17 01:33 | -11.54783 | -77.40265 | 8023 ft | 204 kts | 147° |
| 2026-04-17 01:33 | -11.55979 | -77.39469 | 7947 ft | 208 kts | 147° |
| 2026-04-17 01:33 | -11.57212 | -77.38649 | 7748 ft | 215 kts | 147° |
| 2026-04-17 01:33 | -11.58487 | -77.37798 | 7458 ft | 223 kts | 147° |
| 2026-04-17 01:34 | -11.59793 | -77.36922 | 7228 ft | 226 kts | 147° |
| 2026-04-17 01:34 | -11.61106 | -77.36040 | 7012 ft | 227 kts | 147° |
| 2026-04-17 01:34 | -11.62429 | -77.35155 | 6793 ft | 228 kts | 147° |
| 2026-04-17 01:34 | -11.63761 | -77.34265 | 6539 ft | 231 kts | 147° |
| 2026-04-17 01:35 | -11.65114 | -77.33363 | 6280 ft | 233 kts | 147° |
| 2026-04-17 01:35 | -11.66475 | -77.32461 | 6026 ft | 234 kts | 147° |
| 2026-04-17 01:35 | -11.67839 | -77.31559 | 5783 ft | 233 kts | 147° |
| 2026-04-17 01:35 | -11.69185 | -77.30672 | 5528 ft | 229 kts | 147° |
| 2026-04-17 01:36 | -11.70525 | -77.29790 | 5251 ft | 230 kts | 147° |
| 2026-04-17 01:36 | -11.71867 | -77.28907 | 4992 ft | 229 kts | 147° |
| 2026-04-17 01:36 | -11.73197 | -77.28032 | 4726 ft | 228 kts | 147° |
| 2026-04-17 01:36 | -11.74531 | -77.27153 | 4452 ft | 227 kts | 147° |
| 2026-04-17 01:37 | -11.75854 | -77.26283 | 4187 ft | 227 kts | 147° |
| 2026-04-17 01:37 | -11.77180 | -77.25408 | 3925 ft | 227 kts | 147° |
| 2026-04-17 01:37 | -11.78511 | -77.24531 | 3670 ft | 227 kts | 147° |
| 2026-04-17 01:37 | -11.79827 | -77.23659 | 3420 ft | 224 kts | 147° |
| 2026-04-17 01:38 | -11.81179 | -77.22876 | 3170 ft | 224 kts | 154° |
| 2026-04-17 01:38 | -11.82581 | -77.22220 | 2944 ft | 220 kts | 155° |
| 2026-04-17 01:38 | -11.83944 | -77.21563 | 2789 ft | 213 kts | 155° |
| 2026-04-17 01:38 | -11.85274 | -77.20929 | 2601 ft | 209 kts | 155° |
| 2026-04-17 01:39 | -11.86586 | -77.20304 | 2390 ft | 207 kts | 155° |
| 2026-04-17 01:39 | -11.87873 | -77.19680 | 2199 ft | 202 kts | 155° |
| 2026-04-17 01:39 | -11.89120 | -77.19073 | 2096 ft | 193 kts | 155° |
| 2026-04-17 01:39 | -11.90294 | -77.18499 | 2105 ft | 181 kts | 155° |
| 2026-04-17 01:40 | -11.91395 | -77.17959 | 2106 ft | 171 kts | 155° |
| 2026-04-17 01:40 | -11.92440 | -77.17444 | 1979 ft | 165 kts | 155° |
| 2026-04-17 01:40 | -11.93365 | -77.16986 | 1765 ft | 135 kts | 155° |
| 2026-04-17 01:40 | -11.94175 | -77.16585 | 1571 ft | 126 kts | 155° |
| 2026-04-17 01:41 | -11.94917 | -77.16217 | 1396 ft | 105 kts | 155° |
| 2026-04-17 01:41 | -11.95514 | -77.15922 | 1250 ft | 90 kts | 155° |
| 2026-04-17 01:41 | -11.96094 | -77.15638 | 1175 ft | 96 kts | 155° |
| 2026-04-17 01:41 | -11.96700 | -77.15337 | 1001 ft | 98 kts | 153° |
| 2026-04-17 01:42 | -11.97295 | -77.15039 | 853 ft | 93 kts | 156° |
| 2026-04-17 01:42 | -11.97876 | -77.14762 | 691 ft | 93 kts | 154° |
| 2026-04-17 01:42 | -11.98459 | -77.14472 | 634 ft | 90 kts | 153° |
| 2026-04-17 01:42 | -11.99007 | -77.14181 | 505 ft | 88 kts | 155° |
| 2026-04-17 01:43 | -11.99557 | -77.13911 | 423 ft | 90 kts | 154° |
| 2026-04-17 01:43 | -12.00130 | -77.13626 | 319 ft | 91 kts | 155° |
| 2026-04-17 01:43 | -12.00696 | -77.13348 | 195 ft | 90 kts | 156° |
| 2026-04-17 01:43 | -12.01266 | -77.13079 | 74 ft | 91 kts | 156° |
| 2026-04-17 01:44 | -12.01741 | -77.12846 | 34 ft | 56 kts | 156° |
| 2026-04-17 01:44 | -12.02020 | -77.12709 | 37 ft | 36 kts | 153° |
| 2026-04-17 01:44 | -12.02226 | -77.12608 | 40 ft | 36 kts | 154° |
| 2026-04-17 01:44 | -12.02477 | -77.12484 | 43 ft | 36 kts | 155° |
| 2026-04-17 01:45 | -12.02661 | -77.12370 | 47 ft | 28 kts | 139° |
| 2026-04-17 01:45 | -12.02759 | -77.12250 | 53 ft | 5 kts | 127° |
| 2026-04-17 01:45 | -12.02764 | -77.12244 | 53 ft | 0 kts | 127° |
| 2026-04-17 01:46 | -12.02766 | -77.12242 | 53 ft | 1 kts | 127° |
| 2026-04-17 01:47 | -12.02770 | -77.12236 | 54 ft | 0 kts | 127° |
| 2026-04-17 01:48 | -12.02773 | -77.12232 | 54 ft | 6 kts | 127° |
| 2026-04-17 01:48 | -12.02741 | -77.12185 | 59 ft | 13 kts | 5° |
| 2026-04-17 01:49 | -12.02635 | -77.12229 | 58 ft | 20 kts | 333° |
| 2026-04-17 01:49 | -12.02505 | -77.12299 | 53 ft | 22 kts | 335° |
| 2026-04-17 01:49 | -12.02364 | -77.12365 | 48 ft | 23 kts | 336° |
| 2026-04-17 01:49 | -12.02232 | -77.12419 | 44 ft | 17 kts | 14° |
| 2026-04-17 01:50 | -12.02178 | -77.12331 | 49 ft | 14 kts | 64° |
| 2026-04-17 01:50 | -12.02136 | -77.12244 | 52 ft | 15 kts | 64° |
| 2026-04-17 01:50 | -12.02091 | -77.12150 | 57 ft | 14 kts | 65° |
| 2026-04-17 01:50 | -12.02052 | -77.12067 | 60 ft | 12 kts | 64° |
| 2026-04-17 01:51 | -12.02009 | -77.11979 | 61 ft | 15 kts | 64° |
| 2026-04-17 01:51 | -12.01961 | -77.11877 | 61 ft | 17 kts | 64° |
| 2026-04-17 01:51 | -12.01913 | -77.11771 | 62 ft | 16 kts | 82° |
| 2026-04-17 01:51 | -12.01983 | -77.11708 | 65 ft | 14 kts | 154° |
| 2026-04-17 01:52 | -12.02062 | -77.11669 | 66 ft | 12 kts | 155° |
| 2026-04-17 01:52 | -12.02129 | -77.11637 | 68 ft | 10 kts | 154° |
| 2026-04-17 01:52 | -12.02201 | -77.11600 | 70 ft | 13 kts | 152° |
| 2026-04-17 01:52 | -12.02302 | -77.11551 | 72 ft | 19 kts | 154° |
| 2026-04-17 01:53 | -12.02418 | -77.11495 | 75 ft | 17 kts | 155° |
| 2026-04-17 01:53 | -12.02513 | -77.11448 | 76 ft | 14 kts | 156° |
| 2026-04-17 01:53 | -12.02565 | -77.11387 | 79 ft | 11 kts | 78° |
| 2026-04-17 01:53 | -12.02539 | -77.11326 | 85 ft | 8 kts | 65° |
| 2026-04-17 01:54 | -12.02501 | -77.11251 | 87 ft | 14 kts | 63° |
| 2026-04-17 01:54 | -12.02471 | -77.11188 | 84 ft | 0 kts | 64° |
| 2026-04-17 01:55 | -12.02461 | -77.11168 | 85 ft | 9 kts | 64° |
| 2026-04-17 01:55 | -12.02412 | -77.11111 | 85 ft | 12 kts | 335° |
| 2026-04-17 01:55 | -12.02329 | -77.11155 | 83 ft | 15 kts | 336° |
| 2026-04-17 01:55 | -12.02229 | -77.11201 | 82 ft | 17 kts | 334° |
| 2026-04-17 01:56 | -12.02115 | -77.11258 | 75 ft | 19 kts | 334° |
| 2026-04-17 01:56 | -12.01990 | -77.11319 | 75 ft | 20 kts | 334° |
| 2026-04-17 01:56 | -12.01888 | -77.11370 | 72 ft | 8 kts | 334° |
| 2026-04-17 01:56 | -12.01825 | -77.11402 | 68 ft | 12 kts | 335° |
| 2026-04-17 01:57 | -12.01796 | -77.11380 | 69 ft | 9 kts | 139° |
| 2026-04-17 01:57 | -12.01807 | -77.11360 | 72 ft | 4 kts | 57° |
| 2026-04-17 01:57 | -12.01787 | -77.11334 | 74 ft | 0 kts | 121° |
| 2026-04-17 01:57 | -12.01793 | -77.11330 | 74 ft | 1 kts | 150° |
| 2026-04-17 01:58 | -12.01796 | -77.11328 | 74 ft | 0 kts | 135° |
| 2026-04-17 01:58 | -12.01799 | -77.11324 | 75 ft | 1 kts | 128° |
| 2026-04-17 01:58 | -12.01802 | -77.11320 | 75 ft | 0 kts | 134° |